createdAt,value
2022-08-27T00:00:08.392Z,19.20
2022-08-27T00:02:10.392Z,19.00
2022-08-27T00:04:12.194Z,19.10
2022-08-27T00:06:17.329Z,19.20
2022-08-27T00:08:18.935Z,19.20
2022-08-27T00:10:22.448Z,19.20
2022-08-27T00:12:24.183Z,19.30
2022-08-27T00:14:26.701Z,19.20
2022-08-27T00:16:28.423Z,19.20
2022-08-27T00:18:31.840Z,19.30
2022-08-27T00:20:33.788Z,19.30
2022-08-27T00:22:35.668Z,19.30
2022-08-27T00:24:38.414Z,19.20
2022-08-27T00:26:53.264Z,19.30
2022-08-27T00:28:55.067Z,19.30
2022-08-27T00:30:56.852Z,19.30
2022-08-27T00:32:58.538Z,19.30
2022-08-27T00:35:00.170Z,19.30
2022-08-27T00:37:03.462Z,19.30
2022-08-27T00:39:05.289Z,19.30
2022-08-27T00:41:08.736Z,19.30
2022-08-27T00:43:10.454Z,19.20
2022-08-27T00:45:13.394Z,19.20
2022-08-27T00:47:23.861Z,19.20
2022-08-27T00:49:25.473Z,19.20
2022-08-27T00:51:28.041Z,19.20
2022-08-27T00:53:33.131Z,19.20
2022-08-27T00:55:39.036Z,19.20
2022-08-27T00:57:41.978Z,19.30
2022-08-27T00:59:43.642Z,19.30
2022-08-27T01:02:21.714Z,19.40
2022-08-27T01:04:23.581Z,19.40
2022-08-27T01:06:28.365Z,19.30
2022-08-27T01:08:36.405Z,19.30
2022-08-27T01:10:41.519Z,19.30
2022-08-27T01:12:43.355Z,19.20
2022-08-27T01:14:46.447Z,19.30
2022-08-27T01:16:50.140Z,19.20
2022-08-27T01:18:52.592Z,19.10
2022-08-27T01:20:56.952Z,19.10
2022-08-27T01:23:34.840Z,19.10
2022-08-27T01:25:37.659Z,19.10
2022-08-27T01:27:40.216Z,19.10
2022-08-27T01:29:42.479Z,19.10
2022-08-27T01:31:44.227Z,19.10
2022-08-27T01:34:00.322Z,19.10
2022-08-27T01:36:02.147Z,19.00
2022-08-27T01:38:04.411Z,19.00
2022-08-27T01:40:13.577Z,18.90
2022-08-27T01:42:20.364Z,19.00
2022-08-27T01:44:21.996Z,19.10
2022-08-27T01:46:24.387Z,19.10
2022-08-27T01:48:26.087Z,19.00
2022-08-27T01:50:29.823Z,19.00
2022-08-27T01:52:31.521Z,19.00
2022-08-27T01:54:33.199Z,19.10
2022-08-27T01:56:34.942Z,19.10
2022-08-27T01:58:36.985Z,19.20
2022-08-27T02:00:40.327Z,19.20
2022-08-27T02:02:42.347Z,19.30
2022-08-27T02:04:44.217Z,19.30
2022-08-27T02:06:46.902Z,19.30
2022-08-27T02:08:48.563Z,19.30
2022-08-27T02:10:50.301Z,19.30
2022-08-27T02:12:52.679Z,19.20
2022-08-27T02:14:55.059Z,19.30
2022-08-27T02:16:56.825Z,19.30
2022-08-27T02:18:58.960Z,19.20
2022-08-27T02:21:01.365Z,19.30
2022-08-27T02:23:04.656Z,19.30
2022-08-27T02:25:07.116Z,19.30
2022-08-27T02:27:12.205Z,19.30
2022-08-27T02:29:13.827Z,19.40
2022-08-27T02:31:17.757Z,19.40
2022-08-27T02:33:19.387Z,19.50
2022-08-27T02:35:22.854Z,19.50
2022-08-27T02:37:24.522Z,19.50
2022-08-27T02:39:26.225Z,19.40
2022-08-27T02:41:28.436Z,19.40
2022-08-27T02:43:30.118Z,19.40
2022-08-27T02:45:32.368Z,19.40
2022-08-27T02:47:37.182Z,19.30
2022-08-27T02:49:38.867Z,19.40
2022-08-27T02:51:40.550Z,19.30
2022-08-27T02:53:43.161Z,19.40
2022-08-27T02:55:45.656Z,19.40
2022-08-27T02:57:47.263Z,19.40
2022-08-27T02:59:49.392Z,19.40
2022-08-27T03:01:51.627Z,19.40
2022-08-27T03:03:53.430Z,19.30
2022-08-27T03:05:55.554Z,19.40
2022-08-27T03:07:59.350Z,19.40
2022-08-27T03:10:01.066Z,19.40
2022-08-27T03:12:02.814Z,19.30
2022-08-27T03:14:04.426Z,19.30
2022-08-27T03:16:06.476Z,19.30
2022-08-27T03:18:20.125Z,19.40
2022-08-27T03:20:22.732Z,19.30
2022-08-27T03:22:25.588Z,19.30
2022-08-27T03:24:27.257Z,19.30
2022-08-27T03:26:31.950Z,19.30
2022-08-27T03:28:35.424Z,19.40
2022-08-27T03:30:37.042Z,19.30
2022-08-27T03:32:38.910Z,19.40
2022-08-27T03:34:40.549Z,19.40
2022-08-27T03:36:42.361Z,19.50
2022-08-27T03:38:48.559Z,19.50
2022-08-27T03:40:50.770Z,19.40
2022-08-27T03:42:52.407Z,19.50
2022-08-27T03:44:54.044Z,19.50
2022-08-27T03:46:55.715Z,19.40
2022-08-27T03:48:57.555Z,19.40
2022-08-27T03:51:05.205Z,19.40
2022-08-27T03:53:07.299Z,19.40
2022-08-27T03:55:09.307Z,19.50
2022-08-27T03:57:10.988Z,19.50
2022-08-27T03:59:12.633Z,19.50
2022-08-27T04:01:14.529Z,19.50
2022-08-27T04:03:16.256Z,19.50
2022-08-27T04:05:17.936Z,19.60
2022-08-27T04:07:19.995Z,19.60
2022-08-27T04:09:21.605Z,19.60
2022-08-27T04:11:23.362Z,19.60
2022-08-27T04:13:25.452Z,19.50
2022-08-27T04:15:27.076Z,19.50
2022-08-27T04:17:28.697Z,19.50
2022-08-27T04:19:33.051Z,19.50
2022-08-27T04:21:35.728Z,19.50
2022-08-27T04:23:38.593Z,19.50
2022-08-27T04:25:40.860Z,19.50
2022-08-27T04:27:43.365Z,19.50
2022-08-27T04:29:44.998Z,19.60
2022-08-27T04:31:49.400Z,19.60
2022-08-27T04:33:51.536Z,19.60
2022-08-27T04:36:00.022Z,19.60
2022-08-27T04:38:01.866Z,19.60
2022-08-27T04:40:03.819Z,19.70
2022-08-27T04:42:05.630Z,19.70
2022-08-27T04:44:09.881Z,19.70
2022-08-27T04:46:11.639Z,19.70
2022-08-27T04:48:14.370Z,19.70
2022-08-27T04:50:15.979Z,19.70
2022-08-27T04:52:17.979Z,19.70
2022-08-27T04:54:19.694Z,19.60
2022-08-27T04:56:34.728Z,19.70
2022-08-27T04:58:36.342Z,19.70
2022-08-27T05:00:41.967Z,19.60
2022-08-27T05:02:43.673Z,19.60
2022-08-27T05:04:46.139Z,19.60
2022-08-27T05:06:49.228Z,19.60
2022-08-27T05:08:51.768Z,19.40
2022-08-27T05:10:53.406Z,19.40
2022-08-27T05:12:58.097Z,19.60
2022-08-27T05:15:01.580Z,19.60
2022-08-27T05:17:03.476Z,19.60
2022-08-27T05:19:06.518Z,19.60
2022-08-27T05:21:08.616Z,19.60
2022-08-27T05:23:15.306Z,19.60
2022-08-27T05:25:17.100Z,19.70
2022-08-27T05:27:18.751Z,19.70
2022-08-27T05:29:20.450Z,19.70
2022-08-27T05:31:22.539Z,19.70
2022-08-27T05:33:25.412Z,19.70
2022-08-27T05:35:27.009Z,19.70
2022-08-27T05:37:28.656Z,19.70
2022-08-27T05:39:30.304Z,19.70
2022-08-27T05:41:34.093Z,19.70
2022-08-27T05:43:36.778Z,19.70
2022-08-27T05:45:48.378Z,19.70
2022-08-27T05:47:50.619Z,19.60
2022-08-27T05:49:52.491Z,19.70
2022-08-27T05:51:54.133Z,19.70
2022-08-27T05:54:03.670Z,19.80
2022-08-27T05:56:13.364Z,19.80
2022-08-27T05:58:34.008Z,19.80
2022-08-27T06:01:01.695Z,19.80
2022-08-27T06:03:04.981Z,19.90
2022-08-27T06:05:16.753Z,19.90
2022-08-27T06:07:19.130Z,19.90
2022-08-27T06:09:22.352Z,20.00
2022-08-27T06:11:24.388Z,20.00
2022-08-27T06:13:26.039Z,20.00
2022-08-27T06:18:05.285Z,20.10
2022-08-27T06:20:07.134Z,20.00
2022-08-27T06:22:10.550Z,20.00
2022-08-27T06:24:13.208Z,20.10
2022-08-27T06:26:16.115Z,20.00
2022-08-27T06:28:21.446Z,20.00
2022-08-27T06:30:23.179Z,19.90
2022-08-27T06:32:26.071Z,20.00
2022-08-27T06:34:27.672Z,20.10
2022-08-27T06:36:30.052Z,20.10
2022-08-27T06:38:34.444Z,20.10
2022-08-27T06:40:40.063Z,20.10
2022-08-27T06:42:41.759Z,20.00
2022-08-27T06:44:43.380Z,20.00
2022-08-27T06:46:45.216Z,20.00
2022-08-27T06:48:47.862Z,19.90
2022-08-27T06:50:49.537Z,19.90
2022-08-27T06:52:51.489Z,20.00
2022-08-27T06:54:53.145Z,20.10
2022-08-27T06:56:57.875Z,20.10
2022-08-27T06:59:00.769Z,20.20
2022-08-27T07:01:11.000Z,20.20
2022-08-27T07:03:12.699Z,20.20
2022-08-27T07:05:14.325Z,20.20
2022-08-27T07:07:31.840Z,20.30
2022-08-27T07:09:37.702Z,20.10
2022-08-27T07:11:39.585Z,20.10
2022-08-27T07:13:41.617Z,20.20
2022-08-27T07:15:43.300Z,20.10
2022-08-27T07:17:45.063Z,20.20
2022-08-27T07:19:46.834Z,20.30
2022-08-27T07:21:48.544Z,20.30
2022-08-27T07:23:51.162Z,20.30
2022-08-27T07:25:53.070Z,20.30
2022-08-27T07:27:54.709Z,20.30
2022-08-27T07:29:56.351Z,20.30
2022-08-27T07:31:57.947Z,20.30
2022-08-27T07:33:59.623Z,20.20
2022-08-27T07:36:01.406Z,20.20
2022-08-27T07:38:03.067Z,20.30
2022-08-27T07:40:06.042Z,20.40
2022-08-27T07:42:26.302Z,20.30
2022-08-27T07:44:34.276Z,20.40
2022-08-27T07:46:39.740Z,20.30
2022-08-27T07:48:42.218Z,20.40
2022-08-27T07:50:43.911Z,20.40
2022-08-27T07:52:45.626Z,20.40
2022-08-27T07:54:47.371Z,20.40
2022-08-27T07:56:55.462Z,20.50
2022-08-27T07:58:57.478Z,20.60
2022-08-27T08:00:59.139Z,20.40
2022-08-27T08:03:01.354Z,20.50
2022-08-27T08:05:03.662Z,20.50
2022-08-27T08:07:05.313Z,20.60
2022-08-27T08:09:07.114Z,20.60
2022-08-27T08:11:13.554Z,20.50
2022-08-27T08:13:15.818Z,20.60
2022-08-27T08:15:18.339Z,20.80
2022-08-27T08:17:20.045Z,20.80
2022-08-27T08:19:22.159Z,20.90
2022-08-27T08:21:23.905Z,21.00
2022-08-27T08:23:25.717Z,20.80
2022-08-27T08:25:27.531Z,20.60
2022-08-27T08:27:32.640Z,20.70
2022-08-27T08:29:34.318Z,20.70
2022-08-27T08:31:35.988Z,20.80
2022-08-27T08:33:37.871Z,20.60
2022-08-27T08:35:41.200Z,20.60
2022-08-27T08:37:44.469Z,20.80
2022-08-27T08:39:46.361Z,20.70
2022-08-27T08:41:51.406Z,20.70
2022-08-27T08:43:53.597Z,20.70
2022-08-27T08:45:56.671Z,20.80
2022-08-27T08:48:04.267Z,20.80
2022-08-27T08:50:21.188Z,20.70
2022-08-27T08:52:34.902Z,20.60
2022-08-27T08:54:38.557Z,20.60
2022-08-27T08:56:58.004Z,20.70
2022-08-27T08:59:03.319Z,20.60
2022-08-27T09:01:06.273Z,20.70
2022-08-27T09:03:08.046Z,20.60
2022-08-27T09:05:09.889Z,20.60
2022-08-27T09:07:14.293Z,20.60
2022-08-27T09:09:22.496Z,20.80
2022-08-27T09:11:27.834Z,20.60
2022-08-27T09:13:48.121Z,20.50
2022-08-27T09:15:58.432Z,20.40
2022-08-27T09:18:14.224Z,20.80
2022-08-27T09:20:20.540Z,20.80
2022-08-27T09:22:46.123Z,20.90
2022-08-27T09:24:55.504Z,20.70
2022-08-27T09:26:57.181Z,20.80
2022-08-27T09:29:26.066Z,20.70
2022-08-27T09:31:28.579Z,20.60
2022-08-27T09:33:44.646Z,20.60
2022-08-27T09:35:52.237Z,20.80
2022-08-27T09:37:56.155Z,21.10
2022-08-27T09:40:06.835Z,21.30
2022-08-27T09:42:22.682Z,21.20
2022-08-27T09:44:24.628Z,20.60
2022-08-27T09:46:32.803Z,20.50
2022-08-27T09:48:35.902Z,20.70
2022-08-27T09:50:43.540Z,20.90
2022-08-27T09:52:56.094Z,21.00
2022-08-27T09:55:05.755Z,21.20
2022-08-27T09:57:24.784Z,21.00
2022-08-27T09:59:59.360Z,20.80
2022-08-27T10:02:33.145Z,21.00
2022-08-27T10:04:57.805Z,21.10
2022-08-27T10:06:59.785Z,21.20
2022-08-27T10:09:29.961Z,21.40
2022-08-27T10:11:43.273Z,21.30
2022-08-27T10:13:48.309Z,21.00
2022-08-27T10:15:56.208Z,21.10
2022-08-27T10:18:19.522Z,21.00
2022-08-27T10:20:56.485Z,21.10
2022-08-27T10:23:13.496Z,21.00
2022-08-27T10:28:47.454Z,20.90
2022-08-27T10:30:57.434Z,20.90
2022-08-27T10:33:08.189Z,21.00
2022-08-27T10:35:17.198Z,21.00
2022-08-27T10:37:22.431Z,21.00
2022-08-27T10:39:43.240Z,21.10
2022-08-27T10:42:08.554Z,21.10
2022-08-27T10:44:28.551Z,21.10
2022-08-27T10:46:39.219Z,20.90
2022-08-27T10:49:07.889Z,20.80
2022-08-27T10:51:12.764Z,20.90
2022-08-27T10:53:44.247Z,20.90
2022-08-27T10:55:51.727Z,20.90
2022-08-27T10:58:01.271Z,20.90
2022-08-27T11:00:10.575Z,20.90
2022-08-27T11:02:30.691Z,20.90
2022-08-27T11:04:35.302Z,20.90
2022-08-27T11:06:39.328Z,20.90
2022-08-27T11:08:42.634Z,21.00
2022-08-27T11:10:49.154Z,21.00
2022-08-27T11:12:52.932Z,20.90
2022-08-27T11:14:56.854Z,21.00
2022-08-27T11:17:18.755Z,21.00
2022-08-27T11:19:49.786Z,21.00
2022-08-27T11:22:08.211Z,21.00
2022-08-27T11:24:24.102Z,20.70
2022-08-27T11:26:25.830Z,20.60
2022-08-27T11:28:41.695Z,20.40
2022-08-27T11:30:57.373Z,20.60
2022-08-27T11:33:13.785Z,20.60
2022-08-27T11:35:22.880Z,20.70
2022-08-27T11:37:38.727Z,20.70
2022-08-27T11:39:43.512Z,20.80
2022-08-27T11:41:49.865Z,20.70
2022-08-27T11:43:53.216Z,20.70
2022-08-27T11:45:59.244Z,20.70
2022-08-27T11:48:07.926Z,20.70
2022-08-27T11:50:27.047Z,20.70
2022-08-27T11:52:37.282Z,20.80
2022-08-27T11:54:48.318Z,20.90
2022-08-27T12:00:30.034Z,21.00
2022-08-27T12:02:31.967Z,21.00
2022-08-27T12:07:22.181Z,21.10
2022-08-27T12:09:23.953Z,21.20
2022-08-27T12:11:38.051Z,21.20
2022-08-27T12:13:58.464Z,21.30
2022-08-27T12:16:26.457Z,21.40
2022-08-27T12:18:42.426Z,21.40
2022-08-27T12:20:50.473Z,21.50
2022-08-27T12:24:09.127Z,21.40
2022-08-27T12:26:16.584Z,21.40
2022-08-27T12:28:26.505Z,21.40
2022-08-27T12:30:39.303Z,21.60
2022-08-27T12:32:46.523Z,21.60
2022-08-27T12:35:06.623Z,21.70
2022-08-27T12:37:12.124Z,21.80
2022-08-27T12:39:34.024Z,21.90
2022-08-27T12:41:44.053Z,21.80
2022-08-27T12:43:46.703Z,21.90
2022-08-27T12:45:48.395Z,22.10
2022-08-27T12:47:51.372Z,22.40
2022-08-27T12:49:57.367Z,22.60
2022-08-27T12:52:03.099Z,22.60
2022-08-27T12:54:28.979Z,22.10
2022-08-27T12:56:50.638Z,21.80
2022-08-27T12:59:12.441Z,21.40
2022-08-27T13:01:29.480Z,21.30
2022-08-27T13:03:34.091Z,21.30
2022-08-27T13:05:40.740Z,21.20
2022-08-27T13:07:44.273Z,21.20
2022-08-27T13:09:45.955Z,21.10
2022-08-27T13:11:49.017Z,21.00
2022-08-27T13:13:51.162Z,20.80
2022-08-27T13:15:55.528Z,20.80
2022-08-27T13:17:57.229Z,20.90
2022-08-27T13:20:04.179Z,21.00
2022-08-27T13:22:07.082Z,21.10
2022-08-27T13:24:10.465Z,21.20
2022-08-27T13:26:12.496Z,21.10
2022-08-27T13:28:14.848Z,21.00
2022-08-27T13:30:18.166Z,20.90
2022-08-27T13:32:38.773Z,20.90
2022-08-27T13:34:41.255Z,21.00
2022-08-27T13:37:03.993Z,20.90
2022-08-27T13:39:09.668Z,20.90
2022-08-27T13:41:27.434Z,20.80
2022-08-27T13:43:32.280Z,21.00
2022-08-27T13:45:35.739Z,21.10
2022-08-27T13:47:45.212Z,21.30
2022-08-27T13:49:46.984Z,21.60
2022-08-27T13:51:49.793Z,21.60
2022-08-27T13:54:10.034Z,21.50
2022-08-27T13:56:12.430Z,21.40
2022-08-27T13:58:15.507Z,21.60
2022-08-27T14:00:19.423Z,21.70
2022-08-27T14:02:24.557Z,21.80
2022-08-27T14:04:34.987Z,21.80
2022-08-27T14:06:41.252Z,21.80
2022-08-27T14:08:42.901Z,21.80
2022-08-27T14:10:46.511Z,21.80
2022-08-27T14:12:56.224Z,21.80
2022-08-27T14:14:58.952Z,21.70
2022-08-27T14:17:01.422Z,21.70
2022-08-27T14:19:03.954Z,22.00
2022-08-27T14:21:05.666Z,22.10
2022-08-27T14:23:07.300Z,22.40
2022-08-27T14:25:09.286Z,22.40
2022-08-27T14:27:13.518Z,22.60
2022-08-27T14:29:15.181Z,22.90
2022-08-27T14:31:16.976Z,23.40
2022-08-27T14:33:18.827Z,23.40
2022-08-27T14:35:25.112Z,23.30
2022-08-27T14:37:27.159Z,23.40
2022-08-27T14:39:28.795Z,23.80
2022-08-27T14:41:30.612Z,23.70
2022-08-27T14:43:34.935Z,23.60
2022-08-27T14:45:38.328Z,23.00
2022-08-27T14:47:41.799Z,22.60
2022-08-27T14:49:45.054Z,22.30
2022-08-27T14:51:47.087Z,22.40
2022-08-27T14:53:48.705Z,22.50
2022-08-27T14:55:52.104Z,22.70
2022-08-27T14:57:53.952Z,23.00
2022-08-27T14:59:55.764Z,24.40
2022-08-27T15:01:57.831Z,26.10
2022-08-27T15:03:59.512Z,27.50
2022-08-27T15:06:01.169Z,28.50
2022-08-27T15:08:04.243Z,29.20
2022-08-27T15:10:06.305Z,29.20
2022-08-27T15:12:08.805Z,28.60
2022-08-27T15:14:26.692Z,29.10
2022-08-27T15:16:33.212Z,27.90
2022-08-27T15:18:34.887Z,26.80
2022-08-27T15:20:36.594Z,25.60
2022-08-27T15:22:44.050Z,24.70
2022-08-27T15:24:48.854Z,24.20
2022-08-27T15:26:51.518Z,23.60
2022-08-27T15:28:53.224Z,23.70
2022-08-27T15:30:54.855Z,23.80
2022-08-27T15:32:56.636Z,23.80
2022-08-27T15:35:00.581Z,24.00
2022-08-27T15:37:03.047Z,24.40
2022-08-27T15:39:05.066Z,24.80
2022-08-27T15:41:06.863Z,24.80
2022-08-27T15:43:08.872Z,24.80
2022-08-27T15:45:11.950Z,24.80
2022-08-27T15:47:17.659Z,24.90
2022-08-27T15:49:21.702Z,24.90
2022-08-27T15:51:27.367Z,25.40
2022-08-27T15:53:28.975Z,25.20
2022-08-27T15:55:32.465Z,25.30
2022-08-27T15:57:34.127Z,25.30
2022-08-27T15:59:37.307Z,25.20
2022-08-27T16:01:39.770Z,24.80
2022-08-27T16:03:43.622Z,24.60
2022-08-27T16:05:46.063Z,24.60
2022-08-27T16:07:48.919Z,24.80
2022-08-27T16:09:50.580Z,24.90
2022-08-27T16:11:52.161Z,25.00
2022-08-27T16:13:55.540Z,25.20
2022-08-27T16:15:57.512Z,25.50
2022-08-27T16:18:00.258Z,25.30
2022-08-27T16:20:02.619Z,24.90
2022-08-27T16:22:04.298Z,24.20
2022-08-27T16:24:09.186Z,23.60
2022-08-27T16:26:12.893Z,23.40
2022-08-27T16:28:14.497Z,23.60
2022-08-27T16:30:16.553Z,23.60
2022-08-27T16:32:18.877Z,23.20
2022-08-27T16:34:22.959Z,23.20
2022-08-27T16:36:24.710Z,23.20
2022-08-27T16:38:26.826Z,23.00
2022-08-27T16:40:29.800Z,23.00
2022-08-27T16:42:33.221Z,22.80
2022-08-27T16:44:35.463Z,22.80
2022-08-27T16:46:37.251Z,22.80
2022-08-27T16:49:01.141Z,22.60
2022-08-27T16:51:04.251Z,22.50
2022-08-27T16:53:08.408Z,22.50
2022-08-27T16:55:10.937Z,22.70
2022-08-27T16:57:12.804Z,22.80
2022-08-27T16:59:14.525Z,22.80
2022-08-27T17:01:17.577Z,22.80
2022-08-27T17:03:19.853Z,22.80
2022-08-27T17:05:37.748Z,22.70
2022-08-27T17:07:40.262Z,22.70
2022-08-27T17:09:45.700Z,22.50
2022-08-27T17:11:50.509Z,22.40
2022-08-27T17:13:52.825Z,22.30
2022-08-27T17:15:54.603Z,22.20
2022-08-27T17:17:57.823Z,22.10
2022-08-27T17:19:59.476Z,22.10
2022-08-27T17:22:01.924Z,22.10
2022-08-27T17:24:04.277Z,22.10
2022-08-27T17:26:09.427Z,21.90
2022-08-27T17:28:11.317Z,21.80
2022-08-27T17:30:13.274Z,21.80
2022-08-27T17:32:14.901Z,21.80
2022-08-27T17:34:17.998Z,21.80
2022-08-27T17:36:20.554Z,21.70
2022-08-27T17:38:22.218Z,21.60
2022-08-27T17:40:24.204Z,21.60
2022-08-27T17:42:26.433Z,21.50
2022-08-27T17:44:29.556Z,21.50
2022-08-27T17:46:33.322Z,21.40
2022-08-27T17:48:35.008Z,21.40
2022-08-27T17:50:38.774Z,21.30
2022-08-27T17:52:40.395Z,21.20
2022-08-27T17:54:44.695Z,21.10
2022-08-27T17:56:46.381Z,21.10
2022-08-27T17:58:49.127Z,21.10
2022-08-27T18:00:54.122Z,21.00
2022-08-27T18:02:56.550Z,20.90
2022-08-27T18:04:58.523Z,20.90
2022-08-27T18:07:00.230Z,20.90
2022-08-27T18:09:01.894Z,20.90
2022-08-27T18:11:03.770Z,20.90
2022-08-27T18:13:05.785Z,20.80
2022-08-27T18:15:10.610Z,20.70
2022-08-27T18:17:16.261Z,20.70
2022-08-27T18:19:18.339Z,20.70
2022-08-27T18:21:25.434Z,20.60
2022-08-27T18:23:28.105Z,20.50
2022-08-27T18:25:35.790Z,20.40
2022-08-27T18:27:39.913Z,20.40
2022-08-27T18:29:41.603Z,20.40
2022-08-27T18:31:43.593Z,20.40
2022-08-27T18:33:45.337Z,20.40
2022-08-27T18:35:46.937Z,20.40
2022-08-27T18:37:48.961Z,20.40
2022-08-27T18:39:50.721Z,20.40
2022-08-27T18:41:52.561Z,20.40
2022-08-27T18:43:54.231Z,20.40
2022-08-27T18:45:55.957Z,20.30
2022-08-27T18:47:58.363Z,20.10
2022-08-27T18:49:59.989Z,20.10
2022-08-27T18:52:01.681Z,20.20
2022-08-27T18:54:04.504Z,20.20
2022-08-27T18:56:07.205Z,20.10
2022-08-27T18:58:08.834Z,20.20
2022-08-27T19:00:11.717Z,20.10
2022-08-27T19:02:17.445Z,20.00
2022-08-27T19:04:19.334Z,20.00
2022-08-27T19:06:24.017Z,19.90
2022-08-27T19:08:25.885Z,20.00
2022-08-27T19:10:27.534Z,20.00
2022-08-27T19:12:29.127Z,20.00
2022-08-27T19:14:31.221Z,20.00
2022-08-27T19:16:41.786Z,20.00
2022-08-27T19:18:43.603Z,19.90
2022-08-27T19:20:45.295Z,20.00
2022-08-27T19:22:47.543Z,20.00
2022-08-27T19:24:50.778Z,19.80
2022-08-27T19:26:53.248Z,19.70
2022-08-27T19:28:54.855Z,19.50
2022-08-27T19:30:56.498Z,19.40
2022-08-27T19:32:58.172Z,19.40
2022-08-27T19:35:00.806Z,19.40
2022-08-27T19:37:04.015Z,19.40
2022-08-27T19:39:06.216Z,19.30
2022-08-27T19:41:07.891Z,19.30
2022-08-27T19:43:09.616Z,19.30
2022-08-27T19:45:11.395Z,19.30
2022-08-27T19:47:14.490Z,19.20
2022-08-27T19:49:16.090Z,19.10
2022-08-27T19:51:18.153Z,19.10
2022-08-27T19:53:19.850Z,19.10
2022-08-27T19:55:21.967Z,19.00
2022-08-27T19:57:23.737Z,19.00
2022-08-27T19:59:25.352Z,19.00
2022-08-27T20:01:27.206Z,19.10
2022-08-27T20:03:28.915Z,19.10
2022-08-27T20:05:30.700Z,19.00
2022-08-27T20:07:32.655Z,19.00
2022-08-27T20:09:36.957Z,19.00
2022-08-27T20:11:38.661Z,19.00
2022-08-27T20:13:50.677Z,19.00
2022-08-27T20:15:52.656Z,19.00
2022-08-27T20:17:55.121Z,19.00
2022-08-27T20:19:56.811Z,19.00
2022-08-27T20:21:58.470Z,19.00
2022-08-27T20:24:00.261Z,19.00
2022-08-27T20:26:01.905Z,19.00
2022-08-27T20:28:21.860Z,19.00
2022-08-27T20:30:26.673Z,18.90
2022-08-27T20:32:30.198Z,18.90
2022-08-27T20:34:33.461Z,18.90
2022-08-27T20:36:35.541Z,18.90
2022-08-27T20:38:37.262Z,18.90
2022-08-27T20:40:39.044Z,18.80
2022-08-27T20:42:40.748Z,18.80
2022-08-27T20:44:42.392Z,18.70
2022-08-27T20:46:45.623Z,18.70
2022-08-27T20:48:53.337Z,18.70
2022-08-27T20:50:55.175Z,18.60
2022-08-27T20:52:56.889Z,18.70
2022-08-27T20:54:58.528Z,18.80
2022-08-27T20:57:00.200Z,18.90
2022-08-27T20:59:20.696Z,19.00
2022-08-27T21:01:22.369Z,19.20
2022-08-27T21:03:24.223Z,19.10
2022-08-27T21:05:26.282Z,18.90
2022-08-27T21:07:27.905Z,18.90
2022-08-27T21:09:29.599Z,18.80
2022-08-27T21:11:31.272Z,18.70
2022-08-27T21:13:32.894Z,18.60
2022-08-27T21:15:34.611Z,18.60
2022-08-27T21:17:36.542Z,18.60
2022-08-27T21:19:47.707Z,18.60
2022-08-27T21:21:49.659Z,18.60
2022-08-27T21:23:51.545Z,18.70
2022-08-27T21:25:53.899Z,18.70
2022-08-27T21:27:57.002Z,18.70
2022-08-27T21:29:58.739Z,18.70
2022-08-27T21:32:00.385Z,18.70
2022-08-27T21:34:02.230Z,18.70
2022-08-27T21:36:07.077Z,18.80
2022-08-27T21:38:12.148Z,18.80
2022-08-27T21:40:14.216Z,18.80
2022-08-27T21:42:16.008Z,18.80
2022-08-27T21:44:17.689Z,18.70
2022-08-27T21:46:20.070Z,18.60
2022-08-27T21:48:21.902Z,18.70
2022-08-27T21:50:24.514Z,18.70
2022-08-27T21:52:26.191Z,18.70
2022-08-27T21:54:28.220Z,18.70
2022-08-27T21:56:29.863Z,18.70
2022-08-27T21:58:31.704Z,18.80
2022-08-27T22:00:38.044Z,18.70
2022-08-27T22:02:40.803Z,18.70
2022-08-27T22:04:42.782Z,18.70
2022-08-27T22:06:44.446Z,18.70
2022-08-27T22:08:46.109Z,18.70
2022-08-27T22:10:49.413Z,18.80
2022-08-27T22:12:51.077Z,18.80
2022-08-27T22:14:57.297Z,18.90
2022-08-27T22:16:59.068Z,18.90
2022-08-27T22:19:00.746Z,18.90
2022-08-27T22:21:07.747Z,18.90
2022-08-27T22:23:11.683Z,18.90
2022-08-27T22:25:13.981Z,18.90
2022-08-27T22:27:15.759Z,19.00
2022-08-27T22:29:17.393Z,19.00
2022-08-27T22:31:19.172Z,19.00
2022-08-27T22:33:20.914Z,19.00
2022-08-27T22:35:22.662Z,19.00
2022-08-27T22:37:24.462Z,19.00
2022-08-27T22:39:26.224Z,19.00
2022-08-27T22:41:28.020Z,19.00
2022-08-27T22:43:29.905Z,18.90
2022-08-27T22:45:31.890Z,18.90
2022-08-27T22:47:33.643Z,18.90
2022-08-27T22:49:35.537Z,18.90
2022-08-27T22:51:37.237Z,18.90
2022-08-27T22:53:39.339Z,19.00
2022-08-27T22:55:41.587Z,19.00
2022-08-27T22:57:43.239Z,18.90
2022-08-27T22:59:44.946Z,18.90
2022-08-27T23:01:47.487Z,18.90
2022-08-27T23:03:49.214Z,18.90
2022-08-27T23:05:51.002Z,18.90
2022-08-27T23:07:53.259Z,18.90
2022-08-27T23:09:54.957Z,18.80
2022-08-27T23:11:58.521Z,18.80
2022-08-27T23:14:00.292Z,18.80
2022-08-27T23:16:03.047Z,18.60
2022-08-27T23:18:04.919Z,18.60
2022-08-27T23:20:08.436Z,18.70
2022-08-27T23:22:10.073Z,18.70
2022-08-27T23:24:11.719Z,18.70
2022-08-27T23:26:31.799Z,18.80
2022-08-27T23:28:33.531Z,18.80
2022-08-27T23:30:35.782Z,18.80
2022-08-27T23:32:37.688Z,18.80
2022-08-27T23:34:39.314Z,18.80
2022-08-27T23:36:40.996Z,18.80
2022-08-27T23:38:42.674Z,18.80
2022-08-27T23:40:45.422Z,18.80
2022-08-27T23:42:47.479Z,18.80
2022-08-27T23:44:49.180Z,18.70
2022-08-27T23:46:50.872Z,18.70
2022-08-27T23:48:52.803Z,18.70
2022-08-27T23:50:54.461Z,18.70
2022-08-27T23:52:56.182Z,18.80
2022-08-27T23:54:58.761Z,18.80
2022-08-27T23:57:00.466Z,18.70
2022-08-27T23:59:02.532Z,18.80
